Time;durP1;ratioP1;P1;durP2;ratioP2;P2;SDS_P1;SDS_P2;PMS_P1;PMS_P2;Temp;Humidity;BMP_temperature;BMP_pressure;BME280_temperature;BME280_humidity;BME280_pressure;Samples;Min_cycle;Max_cycle;Signal;HPM_P1;HPM_P2
2022/07/30 00:00:53;;;;;;;;;;;27.70;49.40;;;;;;4976774;28;19918;-65
2022/07/30 00:03:19;;;;;;;;;;;27.70;49.50;;;;;;4979031;28;19918;-65
2022/07/30 00:05:44;;;;;;;;;;;27.70;49.40;;;;;;4975707;28;19929;-66
2022/07/30 00:08:10;;;;;;;;;;;27.60;49.40;;;;;;4980388;28;20444;-65
2022/07/30 00:10:35;;;;;;;;;;;27.60;49.40;;;;;;4980105;28;19917;-65
2022/07/30 00:13:01;;;;;;;;;;;27.60;49.40;;;;;;4978004;28;20285;-65
2022/07/30 00:15:26;;;;;;;;;;;27.60;49.40;;;;;;4980883;28;19925;-66
2022/07/30 00:17:52;;;;;;;;;;;27.60;49.40;;;;;;4979512;28;19913;-65
2022/07/30 00:20:17;;;;;;;;;;;27.60;49.40;;;;;;4978582;28;19924;-66
2022/07/30 00:22:43;;;;;;;;;;;27.60;49.40;;;;;;4980163;28;20426;-65
2022/07/30 00:25:08;;;;;;;;;;;27.60;49.40;;;;;;4978669;28;20429;-65
2022/07/30 00:27:34;;;;;;;;;;;27.60;49.40;;;;;;4978435;28;19922;-66
2022/07/30 00:30:00;;;;;;;;;;;27.60;49.40;;;;;;4980964;28;19921;-66
2022/07/30 00:32:26;;;;;;;;;;;27.60;49.40;;;;;;4978816;28;20323;-65
2022/07/30 00:34:51;;;;;;;;;;;27.60;49.40;;;;;;4983110;28;19929;-65
2022/07/30 00:37:16;;;;;;;;;;;27.60;49.40;;;;;;4982590;28;20055;-65
2022/07/30 00:39:42;;;;;;;;;;;27.50;49.40;;;;;;4983246;28;19937;-66
2022/07/30 00:42:08;;;;;;;;;;;27.50;49.30;;;;;;4982692;28;20421;-66
2022/07/30 00:44:33;;;;;;;;;;;27.50;49.30;;;;;;4980898;28;19999;-65
2022/07/30 00:46:59;;;;;;;;;;;27.50;49.40;;;;;;4981043;28;20015;-66
2022/07/30 00:49:24;;;;;;;;;;;27.50;49.40;;;;;;4991329;28;19957;-65
2022/07/30 00:51:50;;;;;;;;;;;27.50;49.40;;;;;;4981608;28;19926;-66
2022/07/30 00:54:16;;;;;;;;;;;27.50;49.40;;;;;;4990305;28;19966;-66
2022/07/30 00:56:42;;;;;;;;;;;27.50;49.40;;;;;;4980165;28;19924;-65
2022/07/30 00:59:07;;;;;;;;;;;27.40;49.30;;;;;;4985335;28;19990;-66
2022/07/30 01:01:33;;;;;;;;;;;27.50;49.40;;;;;;4981723;28;19997;-65
2022/07/30 01:03:59;;;;;;;;;;;27.40;49.40;;;;;;4982261;28;19921;-66
2022/07/30 01:06:24;;;;;;;;;;;27.40;49.30;;;;;;4980453;28;19989;-66
2022/07/30 01:08:50;;;;;;;;;;;27.40;49.40;;;;;;4981497;28;19922;-65
2022/07/30 01:11:15;;;;;;;;;;;27.40;49.40;;;;;;4981293;28;19931;-65
2022/07/30 01:13:41;;;;;;;;;;;27.40;49.40;;;;;;4981379;28;19913;-65
2022/07/30 01:16:07;;;;;;;;;;;27.40;49.40;;;;;;4980566;28;19914;-66
2022/07/30 01:21:19;;;;;;;;;;;27.40;49.40;;;;;;4980462;28;19932;-65
2022/07/30 01:23:45;;;;;;;;;;;27.30;49.40;;;;;;4979182;28;20392;-65
2022/07/30 01:26:13;;;;;;;;;;;27.30;49.40;;;;;;4979766;28;19917;-65
2022/07/30 01:28:41;;;;;;;;;;;27.30;49.40;;;;;;4981197;28;19972;-65
2022/07/30 01:31:07;;;;;;;;;;;27.30;49.40;;;;;;4981524;28;20021;-66
2022/07/30 01:33:34;;;;;;;;;;;27.30;49.40;;;;;;4980486;28;20020;-66
2022/07/30 01:36:00;;;;;;;;;;;27.30;49.40;;;;;;4981387;28;19917;-65
2022/07/30 01:38:26;;;;;;;;;;;27.30;49.40;;;;;;4980442;28;19961;-67
2022/07/30 01:40:53;;;;;;;;;;;27.30;49.50;;;;;;4981501;28;19918;-66
2022/07/30 01:43:19;;;;;;;;;;;27.20;49.40;;;;;;4981778;28;19948;-65
2022/07/30 01:45:46;;;;;;;;;;;27.30;49.50;;;;;;4983052;28;20393;-65
2022/07/30 01:48:13;;;;;;;;;;;27.20;49.40;;;;;;4980910;28;20017;-66
2022/07/30 01:50:42;;;;;;;;;;;27.20;49.50;;;;;;4982157;28;19918;-65
2022/07/30 01:53:07;;;;;;;;;;;27.20;49.50;;;;;;4978644;28;20293;-65
2022/07/30 01:55:34;;;;;;;;;;;27.20;49.50;;;;;;4979425;28;20195;-67
2022/07/30 01:58:00;;;;;;;;;;;27.20;49.50;;;;;;4996713;28;19933;-65
2022/07/30 02:00:29;;;;;;;;;;;27.20;49.50;;;;;;4989653;28;20024;-67
2022/07/30 02:02:55;;;;;;;;;;;27.10;49.40;;;;;;4981017;28;21329;-66
2022/07/30 02:05:21;;;;;;;;;;;27.10;49.50;;;;;;4994427;28;19922;-66
2022/07/30 02:08:05;;;;;;;;;;;27.20;49.50;;;;;;4979717;28;19928;-66
2022/07/30 02:10:39;;;;;;;;;;;27.20;49.50;;;;;;4988099;28;19925;-65
2022/07/30 02:13:06;;;;;;;;;;;27.10;49.50;;;;;;4978942;28;19967;-65
2022/07/30 02:15:31;;;;;;;;;;;27.10;49.50;;;;;;4981060;28;19917;-65
2022/07/30 02:17:57;;;;;;;;;;;27.10;49.50;;;;;;4990289;28;19914;-66
2022/07/30 02:20:25;;;;;;;;;;;27.10;49.50;;;;;;4980584;28;19917;-66
2022/07/30 02:22:54;;;;;;;;;;;27.10;49.50;;;;;;4978547;28;19925;-65
2022/07/30 02:25:19;;;;;;;;;;;27.10;49.50;;;;;;4987110;28;19914;-65
2022/07/30 02:27:48;;;;;;;;;;;27.10;49.50;;;;;;4979232;28;19928;-65
2022/07/30 02:30:14;;;;;;;;;;;27.10;49.60;;;;;;4981116;28;20112;-66
2022/07/30 02:32:41;;;;;;;;;;;27.10;49.50;;;;;;4980483;28;19921;-65
2022/07/30 02:35:10;;;;;;;;;;;27.10;49.50;;;;;;4986091;28;20074;-66
2022/07/30 02:37:36;;;;;;;;;;;27.10;49.50;;;;;;4978683;28;20338;-67
2022/07/30 02:40:03;;;;;;;;;;;27.00;49.50;;;;;;4995015;28;19917;-66
2022/07/30 02:42:29;;;;;;;;;;;27.00;49.50;;;;;;4978862;28;19949;-66
2022/07/30 02:44:56;;;;;;;;;;;27.00;49.50;;;;;;4983523;28;19909;-65
2022/07/30 02:47:23;;;;;;;;;;;27.00;49.50;;;;;;4980964;28;20555;-66
2022/07/30 02:49:49;;;;;;;;;;;27.00;49.50;;;;;;4980193;28;19918;-66
2022/07/30 02:52:16;;;;;;;;;;;27.00;49.50;;;;;;4977024;28;19928;-66
2022/07/30 02:54:42;;;;;;;;;;;27.00;49.50;;;;;;4993804;28;20340;-66
2022/07/30 02:57:09;;;;;;;;;;;27.00;49.50;;;;;;4977969;28;20332;-66
2022/07/30 02:59:36;;;;;;;;;;;27.00;49.50;;;;;;4977632;28;19918;-65
2022/07/30 03:02:03;;;;;;;;;;;27.00;49.50;;;;;;4981218;28;20381;-66
2022/07/30 03:04:30;;;;;;;;;;;26.90;49.50;;;;;;4986678;28;19921;-66
2022/07/30 03:06:56;;;;;;;;;;;26.90;49.50;;;;;;4977414;28;19914;-66
2022/07/30 03:09:22;;;;;;;;;;;26.90;49.50;;;;;;4984426;28;19925;-67
2022/07/30 03:11:49;;;;;;;;;;;26.90;49.50;;;;;;4980841;28;19922;-65
2022/07/30 03:14:14;;;;;;;;;;;26.90;49.50;;;;;;4978482;28;19918;-65
2022/07/30 03:16:42;;;;;;;;;;;26.90;49.50;;;;;;4979576;28;19921;-65
2022/07/30 03:19:08;;;;;;;;;;;26.90;49.50;;;;;;4980358;28;19921;-65
2022/07/30 03:21:35;;;;;;;;;;;26.90;49.50;;;;;;4993157;28;20004;-65
2022/07/30 03:24:02;;;;;;;;;;;26.90;49.50;;;;;;4977603;28;20269;-65
2022/07/30 03:26:28;;;;;;;;;;;26.90;49.50;;;;;;4977414;28;20278;-65
2022/07/30 03:28:55;;;;;;;;;;;26.90;49.80;;;;;;4979046;28;19917;-65
2022/07/30 03:31:20;;;;;;;;;;;26.90;49.50;;;;;;4978569;28;20365;-66
2022/07/30 03:33:46;;;;;;;;;;;26.90;49.50;;;;;;4978688;28;20004;-67
2022/07/30 03:36:12;;;;;;;;;;;26.80;49.40;;;;;;4977789;28;20008;-66
2022/07/30 03:38:38;;;;;;;;;;;26.90;49.50;;;;;;4979797;28;20005;-65
2022/07/30 03:41:05;;;;;;;;;;;26.90;49.40;;;;;;4979351;28;19922;-65
2022/07/30 03:43:31;;;;;;;;;;;26.90;49.50;;;;;;4988388;28;19929;-65
2022/07/30 03:45:57;;;;;;;;;;;26.80;49.40;;;;;;4987877;28;20618;-66
2022/07/30 03:48:23;;;;;;;;;;;26.80;49.40;;;;;;4977400;28;19917;-65
2022/07/30 03:50:50;;;;;;;;;;;26.80;49.40;;;;;;4980114;28;19914;-65
2022/07/30 03:53:15;;;;;;;;;;;26.80;49.40;;;;;;4976360;28;20385;-65
2022/07/30 03:55:42;;;;;;;;;;;26.80;49.40;;;;;;4980056;28;19920;-65
2022/07/30 03:58:08;;;;;;;;;;;26.80;49.40;;;;;;4986602;28;20369;-65
2022/07/30 04:00:33;;;;;;;;;;;26.80;49.40;;;;;;4979013;28;19944;-66
2022/07/30 04:02:59;;;;;;;;;;;26.80;49.50;;;;;;4977846;28;20387;-65
2022/07/30 04:05:25;;;;;;;;;;;26.80;49.40;;;;;;4978558;28;19996;-65
2022/07/30 04:07:50;;;;;;;;;;;26.80;49.40;;;;;;4975678;28;19933;-65
2022/07/30 04:10:16;;;;;;;;;;;26.80;49.40;;;;;;4977195;28;19973;-65
2022/07/30 04:12:41;;;;;;;;;;;26.80;49.40;;;;;;4977055;28;20354;-65
2022/07/30 04:15:07;;;;;;;;;;;26.80;49.20;;;;;;4977645;28;19936;-66
2022/07/30 04:17:45;;;;;;;;;;;26.70;48.80;;;;;;4975884;28;20263;-65
2022/07/30 04:20:22;;;;;;;;;;;26.50;49.10;;;;;;4985072;28;19925;-66
2022/07/30 04:22:48;;;;;;;;;;;26.20;49.40;;;;;;4975925;28;20916;-65
2022/07/30 04:25:14;;;;;;;;;;;26.20;49.60;;;;;;4977896;28;19917;-66
2022/07/30 04:27:40;;;;;;;;;;;26.20;49.70;;;;;;4978457;28;19956;-66
2022/07/30 04:30:05;;;;;;;;;;;26.20;49.80;;;;;;4994102;28;19960;-65
2022/07/30 04:32:31;;;;;;;;;;;26.20;49.90;;;;;;4976604;28;20019;-65
2022/07/30 04:34:57;;;;;;;;;;;26.10;50.00;;;;;;4979375;28;19968;-67
2022/07/30 04:37:23;;;;;;;;;;;26.00;50.20;;;;;;4977203;28;20767;-65
2022/07/30 04:39:52;;;;;;;;;;;26.00;50.20;;;;;;4978411;28;20004;-66
2022/07/30 04:42:18;;;;;;;;;;;26.00;50.20;;;;;;4978038;28;20444;-64
2022/07/30 04:44:44;;;;;;;;;;;25.90;50.30;;;;;;4979189;28;19921;-66
2022/07/30 04:47:09;;;;;;;;;;;25.90;50.30;;;;;;4977777;28;20064;-66
2022/07/30 04:49:35;;;;;;;;;;;26.00;50.30;;;;;;4974471;28;20492;-65
2022/07/30 04:52:01;;;;;;;;;;;25.90;50.30;;;;;;4975649;28;19928;-67
2022/07/30 04:54:32;;;;;;;;;;;25.90;50.30;;;;;;4976681;28;19967;-66
2022/07/30 04:56:58;;;;;;;;;;;25.90;50.40;;;;;;4977379;28;20055;-66
2022/07/30 04:59:24;;;;;;;;;;;25.90;50.40;;;;;;4980454;28;20013;-65
2022/07/30 05:01:49;;;;;;;;;;;25.70;50.60;;;;;;4977368;28;19921;-66
2022/07/30 05:04:17;;;;;;;;;;;25.70;50.60;;;;;;4979720;28;20041;-65
2022/07/30 05:06:43;;;;;;;;;;;25.70;50.80;;;;;;4986034;28;19952;-67
2022/07/30 05:09:09;;;;;;;;;;;25.70;50.80;;;;;;4977156;28;20352;-65
2022/07/30 05:11:34;;;;;;;;;;;25.50;51.00;;;;;;4976268;28;20057;-65
2022/07/30 05:14:00;;;;;;;;;;;25.40;51.20;;;;;;4978443;28;20020;-66
2022/07/30 05:16:26;;;;;;;;;;;25.40;51.90;;;;;;4978089;28;19913;-69
2022/07/30 05:18:51;;;;;;;;;;;25.40;51.60;;;;;;4987410;28;20452;-65
2022/07/30 05:21:17;;;;;;;;;;;25.20;51.70;;;;;;4979807;28;19975;-67
2022/07/30 05:23:42;;;;;;;;;;;25.20;51.80;;;;;;4981463;28;19918;-66
2022/07/30 05:26:08;;;;;;;;;;;25.30;51.70;;;;;;4980338;28;20328;-67
2022/07/30 05:28:33;;;;;;;;;;;25.30;51.70;;;;;;4984360;28;19924;-66
2022/07/30 05:30:59;;;;;;;;;;;25.30;51.80;;;;;;4980067;28;19992;-66
2022/07/30 05:33:24;;;;;;;;;;;25.20;52.10;;;;;;4977949;28;20816;-66
2022/07/30 05:35:50;;;;;;;;;;;25.10;52.40;;;;;;4979437;28;19929;-67
2022/07/30 05:38:16;;;;;;;;;;;25.00;52.60;;;;;;4976031;28;19976;-66
2022/07/30 05:40:41;;;;;;;;;;;24.90;53.30;;;;;;4994810;28;19964;-66
2022/07/30 05:43:07;;;;;;;;;;;24.80;53.40;;;;;;4978788;28;20008;-65
2022/07/30 05:45:32;;;;;;;;;;;24.70;53.80;;;;;;4982296;28;19928;-67
2022/07/30 05:47:58;;;;;;;;;;;24.60;53.80;;;;;;4980792;28;19921;-65
2022/07/30 05:50:23;;;;;;;;;;;24.60;54.10;;;;;;4978992;28;20316;-66
2022/07/30 05:52:49;;;;;;;;;;;24.60;54.10;;;;;;4978132;28;19943;-65
2022/07/30 05:55:14;;;;;;;;;;;24.60;53.90;;;;;;4980818;28;19942;-66
2022/07/30 05:57:41;;;;;;;;;;;24.70;53.60;;;;;;4980004;28;20049;-65
2022/07/30 06:00:07;;;;;;;;;;;24.70;53.50;;;;;;4981085;28;20036;-65
2022/07/30 06:02:32;;;;;;;;;;;24.80;53.80;;;;;;4979679;28;19932;-65
2022/07/30 06:04:58;;;;;;;;;;;24.80;53.10;;;;;;4978821;28;19922;-66
2022/07/30 06:07:24;;;;;;;;;;;24.80;52.80;;;;;;4978301;28;19917;-65
2022/07/30 06:09:49;;;;;;;;;;;24.90;52.70;;;;;;4978277;28;20377;-66
2022/07/30 06:12:15;;;;;;;;;;;24.90;52.50;;;;;;4989645;28;19925;-66
2022/07/30 06:14:40;;;;;;;;;;;24.90;52.20;;;;;;4980067;28;19928;-65
2022/07/30 06:17:06;;;;;;;;;;;25.00;52.20;;;;;;4987205;28;19925;-65
2022/07/30 06:19:31;;;;;;;;;;;25.00;52.00;;;;;;4986569;28;19918;-66
2022/07/30 06:21:57;;;;;;;;;;;25.00;51.90;;;;;;4976879;28;19940;-66
2022/07/30 06:24:22;;;;;;;;;;;25.10;51.90;;;;;;4986109;28;20389;-66
2022/07/30 06:26:48;;;;;;;;;;;25.10;51.80;;;;;;4989970;28;19941;-65
2022/07/30 06:29:13;;;;;;;;;;;25.10;51.70;;;;;;4980153;28;19918;-65
2022/07/30 06:31:40;;;;;;;;;;;25.10;51.60;;;;;;4979103;28;20227;-64
2022/07/30 06:34:05;;;;;;;;;;;25.10;51.50;;;;;;4979397;28;20456;-66
2022/07/30 06:36:31;;;;;;;;;;;25.10;51.50;;;;;;4978320;28;19983;-65
2022/07/30 06:38:56;;;;;;;;;;;25.10;51.50;;;;;;4985209;28;20056;-66
2022/07/30 06:41:22;;;;;;;;;;;25.10;51.40;;;;;;4979028;28;19913;-66
2022/07/30 06:43:49;;;;;;;;;;;25.10;51.40;;;;;;4980388;28;20306;-65
2022/07/30 06:46:15;;;;;;;;;;;25.10;51.40;;;;;;4980079;28;19914;-65
2022/07/30 06:48:41;;;;;;;;;;;25.20;51.40;;;;;;4979810;28;20003;-66
2022/07/30 06:51:07;;;;;;;;;;;25.20;51.40;;;;;;4978805;28;20502;-65
2022/07/30 06:53:32;;;;;;;;;;;25.20;51.40;;;;;;4977513;28;20012;-65
2022/07/30 06:55:58;;;;;;;;;;;25.20;51.30;;;;;;4979938;28;19914;-65
2022/07/30 06:58:23;;;;;;;;;;;25.20;51.30;;;;;;4979790;28;19976;-65
2022/07/30 07:00:49;;;;;;;;;;;25.20;51.30;;;;;;4979529;28;20428;-65
2022/07/30 07:03:14;;;;;;;;;;;25.20;51.20;;;;;;4979601;28;20696;-65
2022/07/30 07:05:40;;;;;;;;;;;25.20;51.20;;;;;;4978627;28;20292;-65
2022/07/30 07:08:05;;;;;;;;;;;25.20;51.20;;;;;;4977700;28;19917;-65
2022/07/30 07:10:31;;;;;;;;;;;25.20;51.20;;;;;;4980148;28;19921;-66
2022/07/30 07:12:56;;;;;;;;;;;25.20;51.20;;;;;;4976608;28;20289;-65
2022/07/30 07:15:22;;;;;;;;;;;25.20;51.20;;;;;;4978341;28;20362;-66
2022/07/30 07:17:48;;;;;;;;;;;25.20;51.20;;;;;;4985886;28;20374;-66
2022/07/30 07:20:13;;;;;;;;;;;25.20;51.10;;;;;;4980891;28;20424;-65
2022/07/30 07:22:38;;;;;;;;;;;25.30;51.10;;;;;;4977706;28;19921;-66
2022/07/30 07:25:04;;;;;;;;;;;25.20;51.10;;;;;;4978297;28;20443;-65
2022/07/30 07:27:30;;;;;;;;;;;25.20;51.10;;;;;;4978237;28;19924;-65
2022/07/30 07:29:55;;;;;;;;;;;25.30;51.10;;;;;;4976946;28;19918;-65
2022/07/30 07:32:21;;;;;;;;;;;25.20;51.00;;;;;;4976871;28;19925;-66
2022/07/30 07:34:46;;;;;;;;;;;25.20;51.00;;;;;;4992130;28;20008;-65
2022/07/30 07:37:14;;;;;;;;;;;25.20;51.00;;;;;;4973818;28;19940;-65
2022/07/30 07:39:39;;;;;;;;;;;25.30;51.00;;;;;;4977952;28;19917;-65
2022/07/30 07:42:05;;;;;;;;;;;25.30;51.00;;;;;;4984174;28;20318;-65
2022/07/30 07:44:30;;;;;;;;;;;25.30;51.00;;;;;;4979359;28;19918;-65
2022/07/30 07:46:56;;;;;;;;;;;25.30;51.00;;;;;;4978185;28;19918;-65
2022/07/30 07:49:21;;;;;;;;;;;25.30;50.90;;;;;;4978879;28;20043;-66
2022/07/30 07:51:47;;;;;;;;;;;25.30;50.90;;;;;;4976795;28;20409;-66
2022/07/30 07:54:12;;;;;;;;;;;25.30;50.90;;;;;;4976502;28;19920;-65
2022/07/30 07:56:38;;;;;;;;;;;25.30;50.90;;;;;;4979392;28;19925;-65
2022/07/30 07:59:03;;;;;;;;;;;25.30;50.90;;;;;;4980280;28;19921;-65
2022/07/30 08:01:29;;;;;;;;;;;25.30;50.80;;;;;;4975769;28;19964;-64
2022/07/30 08:03:54;;;;;;;;;;;25.30;50.80;;;;;;4980221;28;20068;-67
2022/07/30 08:06:20;;;;;;;;;;;25.30;50.80;;;;;;4977377;28;19928;-64
2022/07/30 08:08:45;;;;;;;;;;;25.30;50.80;;;;;;4984050;28;20333;-67
2022/07/30 08:11:11;;;;;;;;;;;25.30;50.80;;;;;;4977723;28;20258;-64
2022/07/30 08:13:36;;;;;;;;;;;25.40;50.80;;;;;;4977429;28;19929;-65
2022/07/30 08:16:02;;;;;;;;;;;25.30;50.70;;;;;;4976844;28;19917;-66
2022/07/30 08:18:27;;;;;;;;;;;25.40;50.80;;;;;;4977933;28;19921;-65
2022/07/30 08:20:53;;;;;;;;;;;25.40;50.80;;;;;;4976690;28;20062;-65
2022/07/30 08:23:21;;;;;;;;;;;25.30;50.70;;;;;;4973593;28;20603;-64
2022/07/30 08:25:46;;;;;;;;;;;25.30;50.70;;;;;;4977634;28;20333;-66
2022/07/30 08:28:12;;;;;;;;;;;25.40;50.70;;;;;;4976419;28;19933;-64
2022/07/30 08:30:37;;;;;;;;;;;25.40;50.70;;;;;;4977085;28;19921;-64
2022/07/30 08:33:03;;;;;;;;;;;25.40;50.70;;;;;;4976278;28;20360;-65
2022/07/30 08:35:28;;;;;;;;;;;25.40;50.70;;;;;;4977730;28;20082;-64
2022/07/30 08:37:54;;;;;;;;;;;25.40;50.70;;;;;;4976839;28;19943;-65
2022/07/30 08:40:20;;;;;;;;;;;25.40;50.70;;;;;;4976119;28;19921;-66
2022/07/30 08:42:45;;;;;;;;;;;25.40;50.70;;;;;;4986145;28;20009;-65
2022/07/30 08:45:11;;;;;;;;;;;25.40;50.70;;;;;;4976368;28;20024;-65
2022/07/30 08:47:39;;;;;;;;;;;25.40;50.70;;;;;;4976581;28;19924;-64
2022/07/30 08:50:06;;;;;;;;;;;25.40;50.70;;;;;;4975632;28;19997;-66
2022/07/30 08:52:34;;;;;;;;;;;25.40;50.60;;;;;;4975323;28;20605;-65
2022/07/30 08:54:59;;;;;;;;;;;25.40;50.60;;;;;;4979373;28;20335;-65
2022/07/30 08:57:25;;;;;;;;;;;25.40;50.70;;;;;;4980372;28;19949;-64
2022/07/30 08:59:51;;;;;;;;;;;25.40;50.60;;;;;;4980343;28;19917;-65
2022/07/30 09:02:17;;;;;;;;;;;25.40;50.60;;;;;;4990602;28;20290;-64
2022/07/30 09:04:42;;;;;;;;;;;25.40;50.60;;;;;;4982833;28;19925;-64
2022/07/30 09:07:08;;;;;;;;;;;25.40;50.60;;;;;;4980939;28;19918;-66
2022/07/30 09:09:33;;;;;;;;;;;25.40;50.60;;;;;;4981082;28;19929;-65
2022/07/30 09:11:59;;;;;;;;;;;25.40;50.60;;;;;;4980607;28;19922;-66
2022/07/30 09:14:24;;;;;;;;;;;25.40;50.60;;;;;;4987316;28;19918;-65
2022/07/30 09:16:55;;;;;;;;;;;25.40;50.60;;;;;;4980951;28;19917;-65
2022/07/30 09:19:20;;;;;;;;;;;25.40;50.60;;;;;;4981516;28;20696;-66
2022/07/30 09:21:55;;;;;;;;;;;25.40;50.40;;;;;;4981172;28;19921;-64
2022/07/30 09:24:21;;;;;;;;;;;25.40;50.40;;;;;;4988410;28;19972;-66
2022/07/30 09:26:56;;;;;;;;;;;25.40;50.30;;;;;;4978973;28;19921;-65
2022/07/30 09:29:22;;;;;;;;;;;25.40;50.30;;;;;;4981410;28;20337;-65
2022/07/30 09:32:17;;;;;;;;;;;25.40;50.30;;;;;;4981356;28;19917;-66
2022/07/30 09:34:42;;;;;;;;;;;25.40;50.30;;;;;;4971794;28;20450;-65
2022/07/30 09:37:08;;;;;;;;;;;25.40;50.30;;;;;;4979260;28;19925;-64
2022/07/30 09:39:33;;;;;;;;;;;25.40;50.30;;;;;;4980378;28;19925;-65
2022/07/30 09:41:59;;;;;;;;;;;25.40;50.20;;;;;;4980890;28;19921;-64
2022/07/30 09:44:26;;;;;;;;;;;25.40;50.20;;;;;;4981556;28;20407;-64
2022/07/30 09:46:52;;;;;;;;;;;25.40;50.20;;;;;;4981756;28;20008;-65
2022/07/30 09:49:21;;;;;;;;;;;25.50;50.20;;;;;;4982131;28;20035;-64
2022/07/30 09:51:47;;;;;;;;;;;25.50;50.20;;;;;;4979459;28;19918;-66
2022/07/30 09:54:13;;;;;;;;;;;25.50;50.20;;;;;;4978842;28;19917;-63
2022/07/30 09:56:42;;;;;;;;;;;25.50;50.10;;;;;;4977927;28;19918;-64
2022/07/30 09:59:27;;;;;;;;;;;25.50;50.10;;;;;;4980751;28;19953;-64
2022/07/30 10:01:53;;;;;;;;;;;25.50;50.00;;;;;;4980286;28;19937;-64
2022/07/30 10:04:22;;;;;;;;;;;25.50;50.00;;;;;;4979621;28;19964;-65
2022/07/30 10:06:48;;;;;;;;;;;25.50;50.00;;;;;;4977638;28;19929;-64
2022/07/30 10:09:23;;;;;;;;;;;25.50;49.90;;;;;;4977274;28;20348;-63
2022/07/30 10:11:48;;;;;;;;;;;25.50;49.90;;;;;;4978122;28;19923;-64
2022/07/30 10:14:14;;;;;;;;;;;25.50;49.90;;;;;;4978692;28;20602;-64
2022/07/30 10:16:40;;;;;;;;;;;25.50;50.00;;;;;;4977032;28;19924;-66
2022/07/30 10:19:05;;;;;;;;;;;25.50;50.00;;;;;;4979573;28;19953;-64
2022/07/30 10:21:31;;;;;;;;;;;25.50;50.00;;;;;;4980880;28;19921;-66
2022/07/30 10:23:57;;;;;;;;;;;25.50;49.90;;;;;;4978959;28;20362;-64
2022/07/30 10:26:22;;;;;;;;;;;25.50;49.90;;;;;;4978584;28;19921;-64
2022/07/30 10:28:48;;;;;;;;;;;25.50;49.80;;;;;;4980587;28;19925;-65
2022/07/30 10:31:14;;;;;;;;;;;25.50;49.80;;;;;;4978970;28;20025;-64
2022/07/30 10:33:39;;;;;;;;;;;25.50;49.80;;;;;;4980341;28;19921;-65
2022/07/30 10:36:05;;;;;;;;;;;25.50;49.70;;;;;;4980274;28;19918;-65
2022/07/30 10:38:32;;;;;;;;;;;25.50;49.70;;;;;;4978276;28;20013;-64
2022/07/30 10:41:16;;;;;;;;;;;25.60;49.80;;;;;;4978478;28;19918;-64
2022/07/30 10:44:00;;;;;;;;;;;25.60;49.70;;;;;;4978497;28;19930;-64
2022/07/30 10:46:32;;;;;;;;;;;25.60;49.70;;;;;;4979349;28;19918;-64
2022/07/30 10:49:14;;;;;;;;;;;25.60;49.70;;;;;;4979329;28;19952;-66
2022/07/30 10:51:44;;;;;;;;;;;25.60;49.60;;;;;;4979230;28;23180;-64
2022/07/30 10:54:28;;;;;;;;;;;25.60;49.60;;;;;;4977842;28;20396;-65
2022/07/30 10:57:03;;;;;;;;;;;25.60;49.50;;;;;;4977301;28;20289;-64
2022/07/30 10:59:28;;;;;;;;;;;25.60;49.50;;;;;;4979083;28;19925;-64
2022/07/30 11:01:57;;;;;;;;;;;25.60;49.50;;;;;;4979479;28;19922;-64
2022/07/30 11:04:23;;;;;;;;;;;25.60;49.50;;;;;;4977963;28;19957;-68
2022/07/30 11:06:49;;;;;;;;;;;25.60;49.40;;;;;;4969143;28;20003;-64
2022/07/30 11:09:33;;;;;;;;;;;25.60;49.40;;;;;;4975978;28;20436;-67
2022/07/30 11:11:59;;;;;;;;;;;25.60;49.60;;;;;;4975971;28;20856;-66
2022/07/30 11:14:43;;;;;;;;;;;25.60;49.70;;;;;;4975895;28;20018;-68
2022/07/30 11:17:08;;;;;;;;;;;25.60;49.80;;;;;;4974051;28;20409;-67
2022/07/30 11:19:34;;;;;;;;;;;25.60;50.00;;;;;;4975915;28;20064;-69
2022/07/30 11:22:18;;;;;;;;;;;25.70;50.20;;;;;;4976416;28;19955;-68
2022/07/30 11:24:45;;;;;;;;;;;25.70;50.00;;;;;;4976910;28;19921;-66
2022/07/30 11:27:29;;;;;;;;;;;25.70;49.70;;;;;;4976973;28;20371;-67
2022/07/30 11:29:55;;;;;;;;;;;25.70;49.80;;;;;;4978131;28;19917;-69
2022/07/30 11:32:24;;;;;;;;;;;25.70;49.30;;;;;;4977587;28;19930;-69
2022/07/30 11:34:50;;;;;;;;;;;25.80;49.20;;;;;;4980055;28;19918;-67
2022/07/30 11:37:16;;;;;;;;;;;25.90;49.20;;;;;;4976863;28;20247;-68
2022/07/30 11:39:54;;;;;;;;;;;25.90;49.10;;;;;;4978916;28;20714;-68
2022/07/30 11:42:23;;;;;;;;;;;26.00;49.20;;;;;;4978265;28;19949;-68
2022/07/30 11:44:48;;;;;;;;;;;26.00;49.10;;;;;;4979299;28;19921;-69
2022/07/30 11:47:14;;;;;;;;;;;26.10;49.20;;;;;;4979694;28;20293;-69
2022/07/30 11:49:39;;;;;;;;;;;26.10;49.20;;;;;;4978456;28;19927;-68
2022/07/30 11:52:05;;;;;;;;;;;26.10;49.10;;;;;;4973269;28;19957;-68
2022/07/30 11:54:30;;;;;;;;;;;26.10;49.10;;;;;;4977199;28;19921;-68
2022/07/30 11:56:56;;;;;;;;;;;26.10;49.00;;;;;;4974883;28;19977;-67
2022/07/30 11:59:22;;;;;;;;;;;26.20;49.00;;;;;;4981586;28;20230;-69
2022/07/30 12:01:51;;;;;;;;;;;26.20;49.00;;;;;;4982907;28;20217;-68
2022/07/30 12:04:17;;;;;;;;;;;26.20;48.80;;;;;;4988426;28;19921;-67
2022/07/30 12:06:43;;;;;;;;;;;26.20;48.80;;;;;;4995383;28;19921;-68
2022/07/30 12:09:09;;;;;;;;;;;26.30;49.30;;;;;;4981101;28;19961;-67
2022/07/30 12:11:36;;;;;;;;;;;26.30;48.70;;;;;;4979485;28;20009;-68
2022/07/30 12:14:02;;;;;;;;;;;26.40;48.60;;;;;;4970999;28;19948;-67
2022/07/30 12:16:29;;;;;;;;;;;26.40;48.60;;;;;;4976960;28;19976;-66
2022/07/30 12:18:59;;;;;;;;;;;26.40;48.50;;;;;;4979606;28;19918;-68
2022/07/30 12:21:25;;;;;;;;;;;26.40;48.40;;;;;;4979899;28;20816;-69
2022/07/30 12:23:57;;;;;;;;;;;26.50;48.30;;;;;;4975163;28;19961;-66
2022/07/30 12:26:24;;;;;;;;;;;26.50;48.20;;;;;;4979443;28;19913;-67
2022/07/30 12:28:50;;;;;;;;;;;26.60;48.20;;;;;;4980987;28;19918;-67
2022/07/30 12:31:15;;;;;;;;;;;26.60;48.20;;;;;;4984966;28;19971;-67
2022/07/30 12:33:41;;;;;;;;;;;26.60;48.10;;;;;;4978297;28;19936;-68
2022/07/30 12:36:08;;;;;;;;;;;26.60;48.10;;;;;;4982021;28;19999;-67
2022/07/30 12:38:44;;;;;;;;;;;26.70;48.10;;;;;;4978336;28;19922;-68
2022/07/30 12:41:10;;;;;;;;;;;26.70;48.00;;;;;;4985759;28;20044;-68
2022/07/30 12:43:54;;;;;;;;;;;26.70;48.00;;;;;;4982060;28;19921;-67
2022/07/30 12:46:21;;;;;;;;;;;26.70;48.00;;;;;;4984826;28;20551;-67
2022/07/30 12:48:54;;;;;;;;;;;26.80;48.00;;;;;;4978606;28;19926;-66
2022/07/30 12:51:24;;;;;;;;;;;26.80;48.00;;;;;;4980411;28;20821;-66
2022/07/30 12:53:51;;;;;;;;;;;26.80;47.90;;;;;;4979567;28;19953;-66
2022/07/30 12:56:19;;;;;;;;;;;26.80;47.90;;;;;;4991589;28;19940;-66
2022/07/30 12:58:44;;;;;;;;;;;26.80;47.80;;;;;;4995389;28;19985;-67
2022/07/30 13:01:10;;;;;;;;;;;26.80;47.80;;;;;;4981503;28;19925;-66
2022/07/30 13:03:39;;;;;;;;;;;26.80;47.70;;;;;;4975197;28;19924;-67
2022/07/30 13:06:11;;;;;;;;;;;26.80;47.70;;;;;;4978633;28;19928;-67
2022/07/30 13:08:44;;;;;;;;;;;26.90;47.80;;;;;;4985391;28;20019;-66
2022/07/30 13:11:09;;;;;;;;;;;26.90;47.70;;;;;;4980263;28;19972;-66
2022/07/30 13:13:35;;;;;;;;;;;26.90;47.60;;;;;;4981479;28;20028;-67
2022/07/30 13:16:02;;;;;;;;;;;27.00;47.60;;;;;;4981056;28;19922;-66
2022/07/30 13:18:28;;;;;;;;;;;27.00;47.60;;;;;;4978550;28;20428;-66
2022/07/30 13:20:54;;;;;;;;;;;27.00;47.50;;;;;;4976942;28;19922;-65
2022/07/30 13:23:19;;;;;;;;;;;27.00;47.50;;;;;;4977082;28;19922;-65
2022/07/30 13:25:45;;;;;;;;;;;27.00;47.50;;;;;;4981431;28;19984;-66
2022/07/30 13:28:10;;;;;;;;;;;27.00;47.50;;;;;;4982027;28;19925;-65
2022/07/30 13:30:36;;;;;;;;;;;27.10;47.50;;;;;;4982317;28;19987;-64
2022/07/30 13:33:01;;;;;;;;;;;27.10;47.40;;;;;;4978976;28;20321;-66
2022/07/30 13:35:27;;;;;;;;;;;27.10;47.40;;;;;;4979438;28;19922;-67
2022/07/30 13:37:52;;;;;;;;;;;27.20;47.40;;;;;;4976728;28;19922;-65
2022/07/30 13:40:18;;;;;;;;;;;27.20;47.50;;;;;;4980945;28;19917;-67
2022/07/30 13:42:43;;;;;;;;;;;27.20;47.60;;;;;;4980413;28;19922;-66
2022/07/30 13:45:09;;;;;;;;;;;27.20;47.50;;;;;;4982479;28;19963;-67
2022/07/30 13:47:34;;;;;;;;;;;27.20;47.60;;;;;;4976537;28;19922;-66
2022/07/30 13:50:00;;;;;;;;;;;27.30;47.60;;;;;;4978200;28;20305;-66
2022/07/30 13:52:25;;;;;;;;;;;27.30;47.60;;;;;;4980786;28;19922;-67
2022/07/30 13:54:52;;;;;;;;;;;27.30;47.60;;;;;;4977007;28;20013;-66
2022/07/30 13:57:18;;;;;;;;;;;27.30;47.70;;;;;;4976006;28;19926;-67
2022/07/30 13:59:43;;;;;;;;;;;27.30;47.60;;;;;;4974739;28;19928;-65
2022/07/30 14:02:09;;;;;;;;;;;27.30;47.60;;;;;;4975105;28;19926;-65
2022/07/30 14:04:35;;;;;;;;;;;27.30;47.60;;;;;;4977311;28;19994;-65
2022/07/30 14:07:00;;;;;;;;;;;27.30;47.60;;;;;;4975875;28;20342;-64
2022/07/30 14:09:26;;;;;;;;;;;27.30;47.60;;;;;;4973443;28;20313;-64
2022/07/30 14:11:52;;;;;;;;;;;27.30;47.60;;;;;;4978317;28;20277;-65
2022/07/30 14:14:18;;;;;;;;;;;27.30;47.60;;;;;;4979072;28;19917;-65
2022/07/30 14:16:45;;;;;;;;;;;27.30;47.60;;;;;;4992311;28;19913;-64